^^
Datos históricos de la estación: Murcia-Puente Tocinos
Diario Informe para Mayo 07, 2021 Unidades:  Ingés    Métrico   Ambas
Diario Semanal Mensual Anual
  Máxima: Mínima: Promedio:
Temperatura: 74.7 °F 61.9 °F 64.4 °F
Punto de rocio: 59.5 °F 52 °F 56.7 °F
Humedad: 87% 45.1% 77%
Velocidad viento: 6.2mph 1.4mph 3.2mph
Racha viento: 12mph - -
Viento- - SSO
Presión: 30 in 30 in -
Precipitación: 0 in    
 
 
Tabla de datos para Mayo 07, 2021
Hora Temperatura Punto de rocio Presión Viento Velocidad viento Racha viento Humedad Intensidad lluvia(por hora) Nubes
00:04 64.2 °F 58.8 °F 30 in North 4.3 mph 7 mph 83% 0 in
00:09 64.2 °F 58.8 °F 30 in NNO 3.5 mph 6.9 mph 83% 0 in
00:14 64.2 °F 58.8 °F 30 in NNE 2.9 mph 7 mph 83% 0 in
00:19 64 °F 59 °F 30 in North 3.3 mph 7.4 mph 83.3% 0 in
00:24 64 °F 59.2 °F 30 in NNE 3.6 mph 7 mph 84% 0 in
00:29 64 °F 59.2 °F 30 in NNO 3.3 mph 6.4 mph 84% 0 in
00:34 63.9 °F 59 °F 30 in NNO 3.1 mph 6.9 mph 84% 0 in
00:39 63.9 °F 59 °F 30 in NNO 3.1 mph 7 mph 84.4% 0 in
00:44 63.9 °F 59.4 °F 30 in NO 3.1 mph 6 mph 85% 0 in
00:49 63.9 °F 59.4 °F 30 in ONO 3 mph 6 mph 85% 0 in
00:54 63.9 °F 59.4 °F 30 in ONO 2.9 mph 5 mph 85% 0 in
00:59 63.9 °F 59.2 °F 30 in ONO 2.6 mph 5 mph 85% 0 in
01:04 63.7 °F 59.2 °F 30 in ONO 2.4 mph 5 mph 85% 0 in
01:09 63.7 °F 59.4 °F 30 in ONO 2.8 mph 5.2 mph 85.9% 0 in
01:14 63.5 °F 59.2 °F 30 in ONO 3.1 mph 5 mph 86% 0 in
01:19 63.3 °F 59.2 °F 30 in NO 3 mph 4.6 mph 86% 0 in
01:24 63.3 °F 59.2 °F 30 in NO 2.9 mph 5 mph 86.1% 0 in
01:29 63.3 °F 59.4 °F 30 in NO 2.4 mph 4 mph 86.9% 0 in
01:34 63.3 °F 59.4 °F 30 in Oeste 2 mph 4.6 mph 87% 0 in
01:39 63.3 °F 59.4 °F 30 in Oeste 2 mph 5 mph 87% 0 in
01:44 63.3 °F 59.4 °F 30 in Oeste 2 mph 3 mph 87% 0 in
01:49 63.3 °F 59.5 °F 30 in Oeste 1.6 mph 2.4 mph 87% 0 in
01:54 63.5 °F 59.5 °F 30 in Oeste 1.4 mph 2.4 mph 87% 0 in
01:59 63.5 °F 59.5 °F 30 in ONO 1.7 mph 3.6 mph 87% 0 in
02:04 63.5 °F 59.5 °F 30 in ONO 1.8 mph 4 mph 87% 0 in
02:09 63.5 °F 59.5 °F 30 in ONO 1.6 mph 4 mph 87% 0 in
02:14 63.5 °F 59.4 °F 30 in ONO 1.4 mph 2.4 mph 86.4% 0 in
02:19 63.5 °F 59.2 °F 30 in ONO 1.6 mph 2.9 mph 86% 0 in
02:24 63.7 °F 59.4 °F 30 in ONO 1.8 mph 3 mph 86% 0 in
02:29 63.7 °F 59.4 °F 30 in SSE 1.8 mph 3.6 mph 86% 0 in
02:34 63.9 °F 59.4 °F 30 in SE 1.8 mph 4 mph 85.8% 0 in
02:39 63.9 °F 59.4 °F 30 in SE 1.9 mph 4.7 mph 85% 0 in
02:44 63.9 °F 59.4 °F 30 in Sur 2 mph 5 mph 85% 0 in
02:49 63.9 °F 59.2 °F 30 in Sur 2.2 mph 5 mph 84.6% 0 in
02:54 63.9 °F 58.8 °F 30 in Sur 2.4 mph 4.6 mph 84% 0 in
02:59 63.9 °F 58.8 °F 30 in SSE 2.2 mph 5 mph 84% 0 in
03:04 63.9 °F 58.6 °F 30 in SSO 2 mph 4.6 mph 83.4% 0 in
03:09 63.9 °F 58.5 °F 30 in Sur 2.2 mph 5.8 mph 82.7% 0 in
03:14 63.7 °F 57.9 °F 30 in Sur 2.4 mph 5.8 mph 81.7% 0 in
05:09 62.1 °F 56.1 °F 30 in SSO 4.5 mph 7.4 mph 81% 0 in
05:14 62.1 °F 56.3 °F 30 in SO 4.7 mph 6.2 mph 81% 0 in
05:19 62.2 °F 56.1 °F 30 in SO 4.3 mph 7.4 mph 80.7% 0 in
05:24 62.4 °F 56.1 °F 30 in SO 4 mph 7 mph 80% 0 in
05:29 62.4 °F 55.9 °F 30 in SO 4.2 mph 6.2 mph 79.4% 0 in
05:34 62.6 °F 56.1 °F 30 in SO 4.3 mph 6.2 mph 79% 0 in
05:39 62.8 °F 56.1 °F 30 in OSO 3.9 mph 6 mph 78.6% 0 in
05:44 62.6 °F 55.6 °F 30 in OSO 3.6 mph 6.2 mph 78% 0 in
05:49 62.4 °F 55.6 °F 30 in SO 3.6 mph 6 mph 78.4% 0 in
05:54 62.2 °F 55.6 °F 30 in SO 3.6 mph 7.6 mph 79% 0 in
05:59 62.1 °F 55.6 °F 30 in SO 3.9 mph 8.1 mph 79% 0 in
06:04 62.1 °F 55.4 °F 30 in SO 4 mph 8 mph 79% 0 in
06:09 61.9 °F 55.2 °F 30 in SO 3.4 mph 5 mph 79% 0 in
06:14 61.9 °F 55.2 °F 30 in SO 2.9 mph 5 mph 79% 0 in
06:19 62.1 °F 55.4 °F 30 in OSO 2.3 mph 5 mph 79% 0 in
06:24 62.1 °F 55.4 °F 30 in OSO 1.8 mph 5 mph 79% 0 in
06:29 61.9 °F 55.4 °F 30 in SSO 2.5 mph 5 mph 79% 0 in
06:34 61.9 °F 55.2 °F 30 in OSO 2.9 mph 5 mph 79% 0 in
06:39 61.9 °F 55.2 °F 30 in SO 2.9 mph 5 mph 79% 0 in
06:44 61.9 °F 55.2 °F 30 in SO 2.9 mph 5 mph 79% 0 in
06:49 61.9 °F 55.6 °F 30 in SO 2.6 mph 5 mph 79.7% 0 in
06:54 61.9 °F 55.6 °F 30 in SSO 2.4 mph 5 mph 80% 0 in
06:59 61.9 °F 55.6 °F 30 in Sur 2.4 mph 5 mph 79.8% 0 in
07:04 61.9 °F 55.2 °F 30 in SSE 2.4 mph 5 mph 79% 0 in
07:09 61.9 °F 55.2 °F 30 in SSE 2.2 mph 4.3 mph 79% 0 in
07:14 61.9 °F 55.2 °F 30 in Sur 2 mph 5 mph 79% 0 in
07:19 61.9 °F 55.6 °F 30 in Sur 2.2 mph 5 mph 79.6% 0 in
07:24 61.9 °F 55.6 °F 30 in SO 2.4 mph 5 mph 79.7% 0 in
07:29 62.1 °F 55.4 °F 30 in SSO 2.4 mph 5 mph 79% 0 in
07:34 62.1 °F 55.6 °F 30 in Sur 2.4 mph 5 mph 79% 0 in
07:39 62.1 °F 55.6 °F 30 in SSE 2.8 mph 5 mph 79% 0 in
07:44 62.1 °F 55.2 °F 30 in SSE 3.1 mph 5 mph 78.4% 0 in
07:49 62.1 °F 55.2 °F 30 in Sur 2.7 mph 4.7 mph 78% 0 in
07:54 62.2 °F 55.2 °F 30 in SSE 2.4 mph 5 mph 78% 0 in
07:59 62.2 °F 55.2 °F 30 in SSE 2.9 mph 5.2 mph 78% 0 in
08:04 62.2 °F 55 °F 30 in SSE 3.1 mph 6.4 mph 77.5% 0 in
08:09 62.2 °F 55 °F 30 in SSE 3.7 mph 7 mph 77% 0 in
08:14 62.4 °F 55.2 °F 30 in SE 4 mph 7 mph 77% 0 in
08:19 62.8 °F 55.2 °F 30 in SSE 4.2 mph 6 mph 76.2% 0 in
08:24 63 °F 55 °F 30 in SSE 4.3 mph 6.2 mph 75.3% 0 in
08:29 63.3 °F 55.2 °F 30 in SSE 4.3 mph 7.4 mph 74.7% 0 in
08:34 63.7 °F 55.2 °F 30 in SSE 4.3 mph 7 mph 74% 0 in
08:39 64 °F 55.2 °F 30 in SSE 4.3 mph 7 mph 73.1% 0 in
08:44 64.6 °F 55.2 °F 30 in Sur 4.3 mph 6 mph 71.6% 0 in
08:49 64.9 °F 55.2 °F 30 in Sur 3.7 mph 6 mph 70.6% 0 in
08:54 65.5 °F 55.4 °F 30 in Sur 3.1 mph 6 mph 70% 0 in
08:59 66 °F 55.4 °F 30 in SSE 3.6 mph 6.2 mph 68.6% 0 in
09:04 66.6 °F 55.6 °F 30 in SE 4 mph 6 mph 67.8% 0 in
09:09 67.1 °F 55.6 °F 30 in Sur 3.8 mph 6.9 mph 66.5% 0 in
09:14 67.6 °F 55.4 °F 30 in Sur 3.6 mph 7 mph 65.1% 0 in
09:19 68.2 °F 55.6 °F 30 in Sur 4 mph 6 mph 64.1% 0 in
09:24 68.5 °F 55.4 °F 30 in Sur 4.3 mph 6.2 mph 63.1% 0 in
09:29 68.9 °F 55.4 °F 30 in Sur 4.3 mph 6.9 mph 62.2% 0 in
09:34 69.1 °F 55.6 °F 30 in Sur 4.3 mph 6.9 mph 62% 0 in
09:39 69.4 °F 55.2 °F 30 in Sur 4.5 mph 7 mph 60.4% 0 in
09:44 70 °F 55.4 °F 30 in Sur 4.7 mph 6.9 mph 59.7% 0 in
09:49 70.3 °F 55 °F 30 in Sur 4.7 mph 9.2 mph 58.4% 0 in
09:54 70.9 °F 55.2 °F 30 in Sur 4.7 mph 9.2 mph 57.6% 0 in
09:59 71.1 °F 55 °F 30 in Sur 5.4 mph 9.2 mph 56.9% 0 in
10:04 71.6 °F 55 °F 30 in Sur 5.9 mph 9 mph 56.1% 0 in
10:09 72.1 °F 54.9 °F 30 in Sur 5.6 mph 9.2 mph 54.6% 0 in
10:14 72.5 °F 54.7 °F 30 in SSO 5.4 mph 9.2 mph 53.4% 0 in
10:19 72.9 °F 54.5 °F 30 in Sur 5.9 mph 9.2 mph 52.7% 0 in
10:24 73.4 °F 54.5 °F 30 in SSO 6.2 mph 9 mph 51.7% 0 in
10:29 74.1 °F 53.2 °F 30 in SSO 5.8 mph 11.2 mph 48.1% 0 in
10:30 74.7 °F 52 °F 30 in SO 5.5 mph 12 mph 45.1% 0 in
Murcia-Puente Tocinos, España
Compliments of Weather Underground - 1.75 mb

La estación de MeteoMurcia.com, publica sus datos en los siguientes proyectos:

Weather Underground PWS IMURCIAP2 Meteoclimatic www.awekas.at

W3Counter
Web Analytics